createdAt,value
2023-04-16T05:33:22.236Z,94550.00
2023-04-16T05:52:34.027Z,94555.94
2023-04-16T05:55:02.090Z,94560.66
2023-04-16T05:57:30.335Z,94567.94
2023-04-16T05:59:57.300Z,94565.97
2023-04-16T06:02:24.413Z,94556.78
2023-04-16T06:04:51.370Z,94562.44
2023-04-16T06:07:18.324Z,94566.09
2023-04-16T06:09:45.376Z,94565.28
2023-04-16T06:12:12.376Z,94564.78
2023-04-16T06:14:39.294Z,94565.09
2023-04-16T06:17:06.205Z,94564.41
2023-04-16T06:19:33.074Z,94572.34
2023-04-16T06:22:00.110Z,94568.47
2023-04-16T06:24:27.034Z,94570.03
2023-04-16T06:26:54.693Z,94558.19
2023-04-16T06:29:27.878Z,94562.38
2023-04-16T06:32:01.004Z,94556.81
2023-04-16T06:34:28.899Z,94555.81
2023-04-16T06:36:55.930Z,94550.41
2023-04-16T06:39:22.952Z,94550.88
2023-04-16T06:41:50.036Z,94553.28
2023-04-16T06:44:18.363Z,94546.97
2023-04-16T06:46:45.373Z,94551.44
2023-04-16T06:49:12.563Z,94560.25
2023-04-16T06:51:39.541Z,94555.94
2023-04-16T06:54:06.492Z,94550.38
2023-04-16T06:56:33.687Z,94553.88
2023-04-16T06:59:01.233Z,94547.97
2023-04-16T07:01:28.715Z,94543.38
2023-04-16T07:03:56.046Z,94543.09
2023-04-16T07:06:23.225Z,94543.66
2023-04-16T07:08:50.155Z,94540.16
2023-04-16T07:11:17.483Z,94547.59
2023-04-16T07:13:44.572Z,94547.94
2023-04-16T07:16:11.676Z,94556.63
2023-04-16T07:18:38.857Z,94553.75
2023-04-16T07:21:07.005Z,94545.44
2023-04-16T07:23:34.106Z,94541.81
2023-04-16T07:26:01.056Z,94551.53
2023-04-16T07:28:27.973Z,94546.16
2023-04-16T07:30:56.143Z,94549.03
2023-04-16T07:33:23.231Z,94541.88
2023-04-16T07:35:50.299Z,94542.91
2023-04-16T07:38:17.333Z,94541.75
2023-04-16T07:40:44.257Z,94537.09
2023-04-16T07:43:11.319Z,94538.31
2023-04-16T07:45:38.319Z,94545.38
2023-04-16T07:48:05.724Z,94550.09
2023-04-16T07:50:32.649Z,94552.88
2023-04-16T07:52:59.658Z,94537.16
2023-04-16T07:55:26.601Z,94543.50
2023-04-16T07:57:54.174Z,94538.31
2023-04-16T08:00:21.422Z,94538.53
2023-04-16T08:02:49.122Z,94538.84
2023-04-16T08:05:16.426Z,94538.22
2023-04-16T08:07:43.378Z,94540.34
2023-04-16T08:10:10.341Z,94534.63
2023-04-16T08:12:37.408Z,94529.44
2023-04-16T08:15:05.021Z,94536.47
2023-04-16T08:17:33.366Z,94541.00
2023-04-16T08:20:00.446Z,94537.22
2023-04-16T08:22:28.363Z,94532.56
2023-04-16T08:24:55.374Z,94526.81
2023-04-16T08:27:22.282Z,94525.06
2023-04-16T08:29:49.310Z,94522.31
2023-04-16T08:32:16.277Z,94524.44
2023-04-16T08:34:43.553Z,94521.00
2023-04-16T08:37:10.598Z,94521.47
2023-04-16T08:39:37.990Z,94513.09
2023-04-16T08:42:06.464Z,94511.53
2023-04-16T08:44:37.838Z,94507.53
2023-04-16T08:47:09.656Z,94509.59
2023-04-16T08:49:43.476Z,94499.59
2023-04-16T08:52:22.570Z,94498.97
2023-04-16T08:55:06.690Z,94496.59
2023-04-16T08:57:47.374Z,94486.00
2023-04-16T09:00:14.925Z,94498.59
2023-04-16T09:02:43.064Z,94488.34
2023-04-16T09:05:11.586Z,94489.94
2023-04-16T09:07:39.992Z,94481.53
2023-04-16T09:10:08.559Z,94488.38
2023-04-16T09:12:36.147Z,94478.78
2023-04-16T09:15:03.929Z,94482.34
2023-04-16T09:17:31.675Z,94485.19
2023-04-16T09:19:58.826Z,94480.75
2023-04-16T09:22:26.015Z,94486.19
2023-04-16T09:24:53.044Z,94485.56
2023-04-16T09:27:20.770Z,94480.75
2023-04-16T09:29:47.768Z,94479.56
2023-04-16T09:32:14.774Z,94487.16
2023-04-16T09:34:56.477Z,94481.31
2023-04-16T09:37:24.162Z,94480.88
2023-04-16T09:39:57.567Z,94480.84
2023-04-16T09:42:29.189Z,94481.78
2023-04-16T09:44:59.395Z,94473.09
2023-04-16T09:47:39.065Z,94475.06
2023-04-16T09:50:06.328Z,94475.22
2023-04-16T09:52:37.630Z,94469.47
2023-04-16T09:55:05.168Z,94464.38
2023-04-16T09:57:32.268Z,94464.66
2023-04-16T10:00:05.095Z,94453.34
2023-04-16T10:02:33.322Z,94449.13
2023-04-16T10:05:06.561Z,94452.06
2023-04-16T10:07:36.257Z,94452.88
2023-04-16T10:10:04.805Z,94455.84
2023-04-16T10:12:33.127Z,94448.78
2023-04-16T10:15:00.419Z,94454.00
2023-04-16T10:17:30.297Z,94446.72
2023-04-16T10:19:58.699Z,94437.34
2023-04-16T10:22:26.516Z,94436.53
2023-04-16T10:24:54.219Z,94440.66
2023-04-16T10:27:21.612Z,94435.38
2023-04-16T10:29:49.727Z,94433.00
2023-04-16T10:32:18.052Z,94436.47
2023-04-16T10:34:45.183Z,94421.06
2023-04-16T10:37:12.847Z,94422.50
2023-04-16T10:39:39.820Z,94421.53
2023-04-16T10:42:12.008Z,94419.78
2023-04-16T10:44:43.393Z,94425.94
2023-04-16T10:47:12.893Z,94427.25
2023-04-16T10:49:41.081Z,94420.84
2023-04-16T10:52:17.518Z,94418.75
2023-04-16T10:54:44.642Z,94423.69
2023-04-16T10:57:18.539Z,94424.00
2023-04-16T10:59:46.271Z,94428.53
2023-04-16T11:02:19.862Z,94416.78
2023-04-16T11:04:48.765Z,94406.56
2023-04-16T11:07:17.648Z,94403.31
2023-04-16T11:09:50.677Z,94402.50
2023-04-16T11:12:20.284Z,94397.47
2023-04-16T11:15:08.829Z,94393.31
2023-04-16T11:17:40.320Z,94391.31
2023-04-16T11:20:17.409Z,94396.91
2023-04-16T11:22:51.127Z,94378.19
2023-04-16T11:25:21.884Z,94375.31
2023-04-16T11:27:49.542Z,94369.19
2023-04-16T11:30:17.433Z,94371.84
2023-04-16T11:32:45.113Z,94383.13
2023-04-16T11:35:19.422Z,94383.84
2023-04-16T11:37:48.636Z,94364.03
2023-04-16T11:40:15.711Z,94356.88
2023-04-16T11:42:43.693Z,94352.66
2023-04-16T11:45:12.304Z,94337.41
2023-04-16T11:47:46.093Z,94350.19
2023-04-16T11:50:31.148Z,94354.72
2023-04-16T11:53:04.589Z,94350.81
2023-04-16T11:55:31.542Z,94350.81
2023-04-16T11:58:11.913Z,94347.47
2023-04-16T12:00:38.935Z,94349.13
2023-04-16T12:03:05.919Z,94340.84
2023-04-16T12:05:40.998Z,94336.78
2023-04-16T12:08:10.330Z,94336.13
2023-04-16T12:10:52.926Z,94324.63
2023-04-16T12:13:20.069Z,94321.00
2023-04-16T12:15:52.506Z,94318.84
2023-04-16T12:18:22.812Z,94305.53
2023-04-16T12:20:53.615Z,94311.28
2023-04-16T12:23:24.471Z,94309.25
2023-04-16T12:25:52.264Z,94308.00
2023-04-16T12:28:31.141Z,94301.03
2023-04-16T12:31:00.346Z,94310.03
2023-04-16T12:33:27.671Z,94302.31
2023-04-16T12:35:55.178Z,94296.81
2023-04-16T12:38:24.220Z,94294.41
2023-04-16T12:40:52.011Z,94301.31
2023-04-16T12:43:20.044Z,94294.00
2023-04-16T12:45:47.094Z,94296.06
2023-04-16T12:48:14.303Z,94293.44
2023-04-16T12:50:44.547Z,94285.78
2023-04-16T12:53:12.142Z,94292.59
2023-04-16T12:55:39.430Z,94285.06
2023-04-16T12:58:06.893Z,94293.44
2023-04-16T13:00:33.971Z,94291.44
2023-04-16T13:03:01.196Z,94295.47
2023-04-16T13:05:28.267Z,94290.44
2023-04-16T13:07:55.226Z,94293.66
2023-04-16T13:10:23.784Z,94290.31
2023-04-16T13:12:50.780Z,94293.81
2023-04-16T13:15:17.767Z,94287.84
2023-04-16T13:17:44.779Z,94290.16
2023-04-16T13:20:11.795Z,94296.41
2023-04-16T13:22:39.840Z,94295.88
2023-04-16T13:25:07.483Z,94286.97
2023-04-16T13:27:36.976Z,94290.06
2023-04-16T13:30:04.134Z,94286.69
2023-04-16T13:32:31.470Z,94285.94
2023-04-16T13:34:59.599Z,94284.38
2023-04-16T13:37:26.529Z,94292.03
2023-04-16T13:39:53.655Z,94292.84
2023-04-16T13:42:21.064Z,94302.47
2023-04-16T13:44:49.736Z,94306.84
2023-04-16T13:47:17.348Z,94292.41
2023-04-16T13:49:44.221Z,94279.56
2023-04-16T13:52:11.378Z,94278.16
2023-04-16T13:54:38.280Z,94272.97
2023-04-16T13:57:05.420Z,94274.38
2023-04-16T13:59:32.437Z,94288.78
2023-04-16T14:01:59.545Z,94292.16
2023-04-16T14:04:26.811Z,94292.97
2023-04-16T14:06:53.898Z,94299.97
2023-04-16T14:09:21.268Z,94302.19
2023-04-16T14:11:48.255Z,94303.97
2023-04-16T14:14:15.360Z,94304.00
2023-04-16T14:16:42.509Z,94291.97
2023-04-16T14:19:10.071Z,94304.84
2023-04-16T14:21:37.196Z,94310.44
2023-04-16T14:24:04.383Z,94315.88
2023-04-16T14:26:31.374Z,94325.66
2023-04-16T14:28:58.423Z,94331.88
2023-04-16T14:31:25.969Z,94328.88
2023-04-16T14:33:52.933Z,94335.28
2023-04-16T14:36:19.970Z,94335.69
2023-04-16T14:38:47.963Z,94346.91
2023-04-16T14:41:14.997Z,94338.06
2023-04-16T14:43:42.147Z,94339.69
2023-04-16T14:46:09.365Z,94343.69
2023-04-16T14:48:36.735Z,94339.28
2023-04-16T14:51:03.741Z,94344.88
2023-04-16T14:53:31.388Z,94346.13
2023-04-16T14:55:59.253Z,94351.28
2023-04-16T14:58:27.278Z,94356.88
2023-04-16T15:00:54.614Z,94359.28
2023-04-16T15:03:22.036Z,94359.88
2023-04-16T15:05:55.468Z,94362.69
2023-04-16T15:08:23.669Z,94366.47
2023-04-16T15:10:51.326Z,94359.09
2023-04-16T15:13:18.405Z,94368.84
2023-04-16T15:15:45.615Z,94365.84
2023-04-16T15:18:12.685Z,94365.19
2023-04-16T15:20:39.611Z,94356.31
2023-04-16T15:23:06.798Z,94360.69
2023-04-16T15:25:33.821Z,94358.25
2023-04-16T15:28:02.762Z,94376.00
2023-04-16T15:30:30.794Z,94384.19
2023-04-16T15:32:57.889Z,94391.75
2023-04-16T15:35:24.962Z,94379.13
2023-04-16T15:37:53.054Z,94389.69
2023-04-16T15:40:20.815Z,94398.88
2023-04-16T15:42:47.885Z,94399.66
2023-04-16T15:45:17.130Z,94393.66
2023-04-16T15:47:48.113Z,94395.66
2023-04-16T15:50:15.517Z,94397.59
2023-04-16T15:52:42.640Z,94402.75
2023-04-16T15:55:10.386Z,94404.28
2023-04-16T15:57:37.330Z,94413.41
2023-04-16T16:00:13.492Z,94404.75
2023-04-16T16:02:41.972Z,94406.75
2023-04-16T16:05:14.524Z,94401.94
2023-04-16T16:07:42.235Z,94392.94
2023-04-16T16:10:10.832Z,94394.91
2023-04-16T16:12:37.903Z,94404.91
2023-04-16T16:15:06.694Z,94411.91
2023-04-16T16:17:33.993Z,94414.50
2023-04-16T16:20:01.326Z,94403.22
2023-04-16T16:22:28.847Z,94410.66
2023-04-16T16:24:57.851Z,94415.31
2023-04-16T16:27:24.975Z,94411.72
2023-04-16T16:29:52.010Z,94402.13
2023-04-16T16:32:19.406Z,94404.72
2023-04-16T16:34:46.360Z,94398.50
2023-04-16T16:37:13.324Z,94401.09
2023-04-16T16:39:40.455Z,94398.84
2023-04-16T16:42:09.550Z,94418.88
2023-04-16T16:44:37.190Z,94417.72
2023-04-16T16:47:04.170Z,94419.50
2023-04-16T16:49:31.174Z,94418.50
2023-04-16T16:51:58.186Z,94428.72
2023-04-16T16:54:25.099Z,94429.63
2023-04-16T16:56:53.318Z,94426.50
2023-04-16T16:59:20.512Z,94433.84
